»·PEaware :: DAL434 KPHX-KEGE

DAL434 :: KPHX-KEGE

FLIGHT INFORMATION

Flight Status: Arrived
Operator:
Delta Air Lines
More flights by this operator :: More flights under this callsign
Pilot: Drew Hood (3199)
Aircraft: CANADAIR CL-600 CRJ-200
(CRJ2)
More flights by this aircraft type
Origin: KPHX Phoenix Sky Harbor Intl
United States
Destination: KEGE Eagle Co Regl
United States
More flights between these airports :: More routes between these airports
Route: +YOTES5 YOOPR DVC RIL RLG
File this flight plan on PilotEdge
Remarks:
Altitude:
(Current/Filed)
23,000ft
Speed:
(Current/Filed)
425kts
Departed: 10-Jan-17 02:57 PM
Arrived: 10-Jan-17 04:29 PM
Distance/Time
Traveled:
446nm/1:31
Distance/Time
To Go:
Arrived

Flight Plot

Page will automatically refresh every two minutes.


Map Options




Map Legend


Flown Route
Filed Route
Departure Airport
Arrival Airport
Navaid (VOR, NDB)
Fix

Horizontal Profiles

Position Reports

Time Latitude Longitude Heading Altitude Ground
Speed
10-Jan-17 14:15 33.438190 -112.001282 244 1139ft 0kts
10-Jan-17 14:16 33.438190 -112.001282 244 1139ft 0kts
10-Jan-17 14:17 33.438190 -112.001282 244 1139ft 0kts
10-Jan-17 14:18 33.438190 -112.001282 244 1139ft 0kts
10-Jan-17 14:19 33.438190 -112.001282 244 1139ft 0kts
10-Jan-17 14:20 33.438190 -112.001282 244 1139ft 0kts
10-Jan-17 14:21 33.438190 -112.001282 244 1139ft 0kts
10-Jan-17 14:22 33.438190 -112.001282 244 1139ft 0kts
10-Jan-17 14:23 33.438190 -112.001282 244 1139ft 0kts
10-Jan-17 14:24 33.438190 -112.001282 244 1139ft 0kts
10-Jan-17 14:25 33.438190 -112.001282 244 1139ft 0kts
10-Jan-17 14:26 33.438190 -112.001282 244 1139ft 0kts
10-Jan-17 14:27 33.438190 -112.001282 244 1139ft 0kts
10-Jan-17 14:28 33.438190 -112.001282 244 1139ft 0kts
10-Jan-17 14:29 33.438190 -112.001282 244 1139ft 0kts
10-Jan-17 14:30 33.438190 -112.001282 244 1139ft 0kts
10-Jan-17 14:31 33.438190 -112.001282 244 1139ft 0kts
10-Jan-17 14:32 33.438190 -112.001282 244 1139ft 0kts
10-Jan-17 14:33 33.438190 -112.001282 244 1139ft 0kts
10-Jan-17 14:34 33.438190 -112.001282 244 1139ft 0kts
10-Jan-17 14:35 33.438190 -112.001282 244 1139ft 0kts
10-Jan-17 14:36 33.438190 -112.001282 244 1139ft 0kts
10-Jan-17 14:37 33.438190 -112.001282 244 1139ft 0kts
10-Jan-17 14:38 33.438190 -112.001282 244 1139ft 0kts
10-Jan-17 14:39 33.438190 -112.001282 244 1139ft 0kts
10-Jan-17 14:40 33.438190 -112.001282 244 1139ft 0kts
10-Jan-17 14:41 33.438190 -112.001282 244 1139ft 0kts
10-Jan-17 14:42 33.438190 -112.001282 244 1139ft 0kts
10-Jan-17 14:43 33.438190 -112.001282 244 1139ft 0kts
10-Jan-17 14:44 33.438195 -112.001270 244 1139ft 1kts
10-Jan-17 14:45 33.438214 -112.000670 330 1139ft 1kts
10-Jan-17 14:46 33.438133 -112.000647 352 1139ft 0kts
10-Jan-17 14:47 33.438133 -112.000647 352 1139ft 0kts
10-Jan-17 14:48 33.438133 -112.000647 352 1139ft 0kts
10-Jan-17 14:49 33.438168 -112.000652 352 1139ft 2kts
10-Jan-17 14:50 33.439049 -112.001993 269 1139ft 15kts
10-Jan-17 14:51 33.439012 -112.009386 269 1139ft 26kts
10-Jan-17 14:52 33.439022 -112.017884 270 1139ft 22kts
10-Jan-17 14:53 33.439015 -112.024207 271 1139ft 15kts
10-Jan-17 14:54 33.439135 -112.029472 306 1139ft 8kts
10-Jan-17 14:55 33.439803 -112.029668 0 1139ft 0kts
10-Jan-17 14:56 33.440803 -112.029415 64 1139ft 13kts
10-Jan-17 14:57 33.440876 -112.002858 90 1212ft 163kts
10-Jan-17 14:58 33.440108 -111.939684 92 2958ft 207kts
10-Jan-17 14:59 33.443072 -111.874513 36 4721ft 201kts
10-Jan-17 15:00 33.500458 -111.859028 8 5784ft 218kts
10-Jan-17 15:01 33.560795 -111.855889 350 6693ft 223kts
10-Jan-17 15:02 33.622478 -111.842409 8 7516ft 230kts
10-Jan-17 15:03 33.686196 -111.825489 12 8957ft 252kts
10-Jan-17 15:04 33.762608 -111.800389 10 10704ft 278kts
10-Jan-17 15:05 33.826671 -111.761356 31 12820ft 270kts
10-Jan-17 15:06 33.887151 -111.706132 31 14378ft 277kts
10-Jan-17 15:07 33.948707 -111.649478 30 15805ft 283kts
10-Jan-17 15:08 34.012436 -111.592365 24 17130ft 286kts
10-Jan-17 15:09 34.079789 -111.540638 24 18354ft 291kts
10-Jan-17 15:10 34.147674 -111.488470 24 19463ft 296kts
10-Jan-17 15:11 34.217224 -111.434907 23 20502ft 300kts
10-Jan-17 15:12 34.288085 -111.380221 23 21710ft 305kts
10-Jan-17 15:13 34.359545 -111.325249 23 22786ft 310kts
10-Jan-17 15:14 34.434318 -111.267541 24 23167ft 334kts
10-Jan-17 15:15 34.514368 -111.205359 24 23165ft 349kts
10-Jan-17 15:16 34.597379 -111.140738 24 23152ft 363kts
10-Jan-17 15:17 34.685423 -111.079697 20 23098ft 372kts
10-Jan-17 15:18 34.777508 -111.019322 20 23074ft 382kts
10-Jan-17 15:19 34.871128 -110.957790 20 23075ft 390kts
10-Jan-17 15:20 34.966351 -110.895021 20 23075ft 397kts
10-Jan-17 15:21 35.064679 -110.830072 20 23077ft 410kts
10-Jan-17 15:22 35.164645 -110.763847 20 23077ft 420kts
10-Jan-17 15:23 35.267939 -110.695207 20 23078ft 428kts
10-Jan-17 15:24 35.372906 -110.625250 20 23079ft 435kts
10-Jan-17 15:25 35.479908 -110.553722 20 23079ft 441kts
10-Jan-17 15:26 35.587598 -110.481512 20 23080ft 445kts
10-Jan-17 15:27 35.687931 -110.391142 46 23082ft 468kts
10-Jan-17 15:28 35.747764 -110.247678 56 23074ft 474kts
10-Jan-17 15:29 35.814612 -110.107545 55 23071ft 476kts
10-Jan-17 15:30 35.907215 -110.005374 15 23081ft 445kts
10-Jan-17 15:31 36.023341 -109.989914 355 23098ft 424kts
10-Jan-17 15:32 36.135362 -109.931775 22 23105ft 452kts
10-Jan-17 15:33 36.246806 -109.864445 17 23118ft 449kts
10-Jan-17 15:34 36.359597 -109.798396 17 23123ft 451kts
10-Jan-17 15:35 36.473528 -109.731506 17 23130ft 455kts
10-Jan-17 15:36 36.588097 -109.664017 17 23133ft 459kts
10-Jan-17 15:37 36.703452 -109.595840 17 23133ft 462kts
10-Jan-17 15:38 36.819205 -109.527197 17 23134ft 464kts
10-Jan-17 15:39 36.935765 -109.457843 17 23135ft 466kts
10-Jan-17 15:40 37.052880 -109.387898 17 23132ft 468kts
10-Jan-17 15:41 37.169799 -109.318244 17 23123ft 470kts
10-Jan-17 15:42 37.287439 -109.247636 18 23124ft 471kts
10-Jan-17 15:43 37.405808 -109.176245 18 23122ft 472kts
10-Jan-17 15:44 37.523806 -109.104823 18 23110ft 474kts
10-Jan-17 15:45 37.642419 -109.032757 19 23084ft 477kts
10-Jan-17 15:46 37.757099 -108.962840 19 23106ft 479kts
10-Jan-17 15:47 37.875790 -108.885219 22 23070ft 485kts
10-Jan-17 15:48 37.994447 -108.803508 22 23051ft 488kts
10-Jan-17 15:49 38.112924 -108.721620 22 23049ft 490kts
10-Jan-17 15:50 38.232148 -108.638914 23 23048ft 491kts
10-Jan-17 15:51 38.351739 -108.555621 22 23050ft 491kts
10-Jan-17 15:52 38.471466 -108.471932 22 23052ft 492kts
10-Jan-17 15:53 38.591441 -108.387753 23 23034ft 494kts
10-Jan-17 15:54 38.709330 -108.305164 23 22993ft 495kts
10-Jan-17 15:55 38.829638 -108.220169 23 22998ft 494kts
10-Jan-17 15:56 38.949501 -108.134953 22 22995ft 494kts
10-Jan-17 15:57 39.069020 -108.049840 19 22992ft 492kts
10-Jan-17 15:58 39.186388 -107.965951 20 22997ft 490kts
10-Jan-17 15:59 39.304821 -107.880899 20 22974ft 489kts
10-Jan-17 16:00 39.423350 -107.795439 20 22966ft 489kts
10-Jan-17 16:01 39.536578 -107.698818 36 22268ft 500kts
10-Jan-17 16:02 39.604565 -107.541607 76 20944ft 512kts
10-Jan-17 16:03 39.657395 -107.376347 60 19833ft 497kts
10-Jan-17 16:04 39.715305 -107.223003 61 18797ft 488kts
10-Jan-17 16:05 39.799735 -107.104439 9 17643ft 442kts
10-Jan-17 16:06 39.914139 -107.060457 9 16994ft 425kts
10-Jan-17 16:07 40.019841 -107.012756 28 16989ft 409kts
10-Jan-17 16:08 40.108142 -106.930118 28 16945ft 389kts
10-Jan-17 16:09 40.193953 -106.848773 28 16913ft 374kts
10-Jan-17 16:10 40.258713 -106.752659 81 16925ft 377kts
10-Jan-17 16:11 40.214932 -106.651771 169 16947ft 322kts
10-Jan-17 16:12 40.150208 -106.615611 170 16479ft 271kts
10-Jan-17 16:13 40.092369 -106.579815 153 15281ft 281kts
10-Jan-17 16:14 40.045939 -106.515676 138 14316ft 287kts
10-Jan-17 16:15 39.991765 -106.468103 200 12663ft 249kts
10-Jan-17 16:16 39.940543 -106.496096 215 11984ft 176kts
10-Jan-17 16:17 39.906551 -106.521515 216 12001ft 197kts
10-Jan-17 16:18 39.862398 -106.556362 217 12002ft 194kts
10-Jan-17 16:19 39.828493 -106.583513 218 12003ft 181kts
10-Jan-17 16:20 39.791761 -106.605677 206 12008ft 182kts
10-Jan-17 16:21 39.751180 -106.621866 205 11932ft 183kts
10-Jan-17 16:22 39.713124 -106.636638 205 11869ft 175kts
10-Jan-17 16:23 39.687166 -106.677926 247 11358ft 160kts
10-Jan-17 16:24 39.670776 -106.731120 249 10700ft 156kts
10-Jan-17 16:25 39.661570 -106.781927 257 9640ft 142kts
10-Jan-17 16:26 39.652696 -106.830231 259 8754ft 137kts
10-Jan-17 16:27 39.647166 -106.878848 259 7119ft 135kts
10-Jan-17 16:28 39.642393 -106.920306 261 6551ft 80kts
10-Jan-17 16:29 39.641229 -106.924488 163 6551ft 4kts
10-Jan-17 16:30 39.641548 -106.917824 85 6551ft 7kts
10-Jan-17 16:31 39.640424 -106.916244 171 6551ft 0kts
10-Jan-17 16:32 39.640424 -106.916244 171 6551ft 0kts
10-Jan-17 16:33 39.640424 -106.916244 171 6551ft 0kts
10-Jan-17 16:34 39.640424 -106.916244 171 6551ft 0kts
10-Jan-17 16:35 39.640424 -106.916244 171 6551ft 0kts
10-Jan-17 16:36 39.640424 -106.916244 171 6551ft 0kts
10-Jan-17 16:37 39.640424 -106.916244 171 6551ft 0kts
10-Jan-17 16:38 39.640424 -106.916244 171 6551ft 0kts

Navigation Log

Ident Type
1. KPHX Airport
2. SPRKY Fix
3. GOALY Fix
4. POCCK Fix
5. MRBIL Fix
6. YOTES Fix
7. YOOPR Fix
8. DVC Navaid
9. RIL Navaid
10. RLG Navaid
11. KEGE Airport